Aérodrome :
LOGIN :

S'inscrire | Disclaimer

   EN    FR    IT 

 










Légende :    VFR   VFR Marginal   IFR   IFR Intensif   IFR Très Intensif
Visi : 
Plafond : 
>= 8 km
>= 3000ft
5 à 8 km
1000 à 3000 ft
1500m à 5 km
500 à 1000 ft
800 à 1500m
200 à 500 ft
< 800m
< 200 ft
Symboles :   Orages  Brouillard  Fortes neiges  Fortes précipitations  Vent > 20 kt
SIGMETs :   Divers  Orages  Givrage  Turbulence  Onde Orograph.  Cendres Volcan.






- Altitude de l'aérodrome : 49 ft
- Code IATA : GLZ


EHGR - Gilze-Rijen Airbase

DERNIER METAR :
  • 220129Z AUTO 22007KT 200V260 3400 +DZRA SCT004 BKN005 BKN007 11/10 Q0998 YLO

METARs EXPIRÉS :
  • 220125Z AUTO 23006KT 200V260 5000 -RA FEW004 BKN005 BKN007 11/10 Q0998 RERA REDZ YLO
  • 220055Z AUTO 22009KT 170V260 2800 +DZ FEW003 BKN005 BKN006 10/10 Q0998 YLO
  • 220025Z AUTO 21010KT 180V250 2600 +DZ SCT003 BKN004 OVC006 10/10 Q0998 YLO
  • 212355Z AUTO 21010KT 180V250 2600 DZ SCT003 BKN005 OVC006 10/10 Q0999 YLO
  • 212325Z AUTO 21010KT 170V260 2200 +DZ SCT004 BKN005 OVC006 10/10 Q0999 YLO
  • 212255Z AUTO 21010KT 160V250 2900 DZ SCT004 BKN005 OVC006 10/10 Q0999 YLO
  • 212225Z AUTO 21010KT 170V250 2600 DZ SCT004 BKN005 OVC006 10/09 Q0999 YLO
  • 212155Z AUTO 21012KT 170V250 2700 +DZ FEW004 BKN005 OVC006 10/09 Q1000 YLO
  • 212125Z AUTO 21012KT 160V240 2600 +DZ FEW005 BKN006 OVC007 09/09 Q1000 YLO
  • 212056Z AUTO 20013KT 160V250 3100 R28/P3000N DZ SCT005 BKN007 OVC009 09/09 Q1000 YLO TEMPO 2500
  • 212055Z AUTO 20013KT 170V250 3700 DZ FEW005 BKN007 BKN009 09/09 Q1000 GRN TEMPO 2500

TAF TAF EHGR
Valide du 21 à 18h jusqu'au 22 à 06h UTC


211741Z 2118/2206 19012KT 9999 -RA FEW012 BKN018
TEMPO 2118/2122 21015G25KT 4500 RA DZRA SCT008 BKN010
BECMG 2122/2124 23007KT 3500 BR DZ BKN005 OVC008
TEMPO 2122/2206 1500 BR -DZ BKN002 OVC004



MET'MAP, la Météo Aéronautique d'un coup d'oeil ! - Copyright ORBIFLY Décembre 2007 - Disclaimer

ORBIFLY MET'MAP TEAM :

Programmation & Développement : Alexandra Zaïnal
Sur une idée originale de : Baudouin d'Aumeries
Soutien technique & logistique : Manuel Goepfert
Assistance : Marc-Olivier Méhu




SOURCES & CREDITS :

   NOAA